Back to Top

Current Local METAR Station Weather Reports...

Local METAR Reports

Local METAR Reports

 

EGNJ - Humberside, United Kingdom
Distance from station: ESE 12mi, 20km
Updated: Sun, 20-Jun-2021 4:50pm BST
Partly Cloudy
Partly Cloudy
 Wind from NE
Wind: NE 12 mph , 19 km/h
Temperature: 16°C
Dew Point: 10°C
Humidity: 68%
Barometer: 1011 hPa
Clouds: Partly Cloudy
Visibility: 6 miles , 10 km
Cloud details: Partly Cloudy 884 m
2021/06/20 15:50 EGNJ 201550Z 05010KT 9999 SCT029 16/10 Q1011
EGXV - Leconfield (aut), United Kingdom
Distance from station: NNE 16mi, 26km
Updated: Sun, 20-Jun-2021 4:50pm BST
Partly Cloudy
Partly Cloudy
 Wind from varies
Wind: varies 0 mph , 0 km/h
Temperature: 15°C
Dew Point: 10°C
Humidity: 72%
Barometer: 1011 hPa
Clouds: Partly Cloudy
Visibility: 6 miles , 10 km
Cloud details: Partly Cloudy 701 m
Partly Cloudy 914 m
2021/06/20 15:50 EGXV 201550Z AUTO /////KT 9999 SCT023/// SCT030/// 15/10 Q1011
 
EGCN - Doncaster Sheffi, United Kingdom
Distance from station: SW 20mi, 32km
Updated: Sun, 20-Jun-2021 4:50pm BST
Partly Cloudy
Partly Cloudy
 Wind from NE
Wind: NE 9 mph , 15 km/h
Temperature: 16°C
Dew Point: 9°C
Humidity: 63%
Barometer: 1012 hPa
Clouds: Partly Cloudy
Visibility: 6 miles , 10 km
Cloud details: Few Clouds 914 m
Partly Cloudy 1067 m
2021/06/20 15:50 EGCN 201550Z 04008KT 9999 FEW030 SCT035 16/09 Q1012
EGXP - Scampton Raf, United Kingdom
Distance from station: S 25mi, 39km
Updated: Sun, 20-Jun-2021 4:50pm BST
Mostly Cloudy
Mostly Cloudy
 Wind from E
Wind: E 12 mph , 19 km/h
Temperature: 14°C
Dew Point: 8°C
Humidity: 67%
Barometer: 1011 hPa
Clouds: Mostly Cloudy
Visibility: 6 miles , 10 km
Cloud details: Few Clouds 823 m
Mostly Cloudy 1829 m
2021/06/20 15:50 EGXP 201550Z AUTO 08010KT 9999 // FEW027/// BKN060/// 14/08 Q1011
 
EGXW - Waddington Raf, United Kingdom
Distance from station: S 33mi, 53km
Updated: Sun, 20-Jun-2021 4:50pm BST
Mostly Cloudy
Mostly Cloudy
 Wind from ENE
Wind: ENE 13 mph , 20 km/h
Temperature: 15°C
Dew Point: 7°C
Humidity: 59%
Barometer: 1011 hPa
Clouds: Mostly Cloudy
Visibility: 6 miles , 10 km
Cloud details: Mostly Cloudy 1067 m
Mostly Cloudy 1829 m
2021/06/20 15:50 EGXW 201550Z AUTO 06011KT 9999 BKN035/// BKN060/// 15/07 Q1011 REDZ
EGXS - Donna Nook Raf, United Kingdom
Distance from station: ESE 33mi, 54km
Updated: Sun, 20-Jun-2021 4:50pm BST
Overcast
Overcast
 Wind from NNE
Wind: NNE 10 mph , 17 km/h
Temperature: 13°C
Dew Point: 9°C
Humidity: 77%
Barometer: 1011 hPa
Clouds: Overcast
Visibility: 6 miles , 10 km
Cloud details: Overcast 2438 m
2021/06/20 15:50 EGXS 201550Z AUTO 03009KT 9999 // OVC080/// 13/09 Q1011
 
EGXU - Linton-On-Ouse R, United Kingdom
Distance from station: NW 38mi, 61km
Updated: Sun, 20-Jun-2021 4:50pm BST
Mostly Cloudy
Mostly Cloudy
 Wind from NE
Wind: NE 7 mph , 11 km/h
Temperature: 17°C
Dew Point: 7°C
Humidity: 52%
Barometer: 1011 hPa
Clouds: Mostly Cloudy
Visibility: 6 miles , 10 km
Cloud details: Few Clouds 1189 m
Mostly Cloudy 2438 m
2021/06/20 15:50 EGXU 201550Z AUTO 04006KT 9999 FEW039/// BKN080/// 17/07 Q1011
EGXC - Coningsby Raf, United Kingdom
Distance from station: SSE 42mi, 68km
Updated: Sun, 20-Jun-2021 4:50pm BST
Mostly Cloudy
Mostly Cloudy
 Wind from ENE
Wind: ENE 12 mph , 19 km/h
Temperature: 14°C
Dew Point: 10°C
Humidity: 77%
Barometer: 1011 hPa
Clouds: Mostly Cloudy
Visibility: 6 miles , 10 km
Cloud details: Few Clouds 671 m
Partly Cloudy 1219 m
Mostly Cloudy 1829 m
2021/06/20 15:50 EGXC 201550Z 07010KT 9999 FEW022 SCT040 BKN060 14/10 Q1011 NOSIG RMK BLU BLU
 
EGYD - Cranwell Raf, United Kingdom
Distance from station: S 43mi, 69km
Updated: Sun, 20-Jun-2021 4:50pm BST
Mostly Cloudy
Mostly Cloudy
 Wind from NE
Wind: NE 12 mph , 19 km/h
Temperature: 13°C
Dew Point: 10°C
Humidity: 82%
Barometer: 1011 hPa
Clouds: Mostly Cloudy
Visibility: 6 miles , 10 km
Cloud details: Mostly Cloudy 792 m
2021/06/20 15:50 EGYD 201550Z AUTO 05010KT 9999 // BKN026/// 13/10 Q1011
EGNM - Leeds And Bradfo, United Kingdom
Distance from station: WNW 44mi, 71km
Updated: Sun, 20-Jun-2021 4:50pm BST
Partly Cloudy
Partly Cloudy
 Wind from N
Wind: N 7 mph , 11 km/h
Temperature: 16°C
Dew Point: 7°C
Humidity: 55%
Barometer: 1011 hPa
Clouds: Partly Cloudy
Visibility: 6 miles , 10 km
Cloud details: Partly Cloudy 1006 m
2021/06/20 15:50 EGNM 201550Z 01006KT 340V060 9999 SCT033 16/07 Q1011
 
EGXZ - Topcliffe Raf, United Kingdom
Distance from station: NW 49mi, 79km
Updated: Sun, 20-Jun-2021 3:50am BST
NOT Current
Light rain, Mostly cloudy
Light rain, Mostly cloudy
 Wind from N
Wind: N 3 mph , 6 km/h
Temperature: 11°C
Dew Point: 10°C
Humidity: 94%
Barometer: 1011 hPa
Summary: Light Rain
Clouds: Mostly Cloudy
Visibility: 6 miles , 10 km
Cloud details: Few Clouds 366 m
Mostly Cloudy 1829 m
2021/06/20 02:50 EGXZ 200250Z AUTO 35003KT 9999 -RA FEW012/// BKN060/// 11/10 Q1011
EGXE - Leeming Raf, United Kingdom
Distance from station: NW 57mi, 92km
Updated: Sun, 20-Jun-2021 4:50pm BST
Overcast
Overcast
 Wind from E
Wind: E 9 mph , 15 km/h
Temperature: 17°C
Dew Point: 7°C
Humidity: 52%
Barometer: 1011 hPa
Clouds: Overcast
Visibility: 6 miles , 10 km
Cloud details: Overcast 2743 m
2021/06/20 15:50 EGXE 201550Z AUTO 08008KT 9999 OVC090/// 17/07 Q1011
 
EGYH - Holbeach (aut), United Kingdom
Distance from station: SSE 63mi, 101km
Updated: Thu, 17-Jun-2021 10:50pm BST
NOT Current
Mostly Cloudy
Mostly Cloudy
 Wind from NE
Wind: NE 14 mph , 22 km/h
Temperature: 15°C
Dew Point: 14°C
Humidity: 94%
Barometer: 1015 hPa
Clouds: Mostly Cloudy
Visibility: 6 miles , 10 km
Cloud details: Few Clouds 610 m
Mostly Cloudy 1524 m
2021/06/17 21:50 EGYH 172150Z 04012KT 9999 FEW020 BKN050 15/14 Q1015 RMK BLU
EGNX - East Midlands, United Kingdom
Distance from station: SSW 65mi, 104km
Updated: Sun, 20-Jun-2021 4:50pm BST
Mostly Cloudy
Mostly Cloudy
 Wind from NE
Wind: NE 9 mph , 15 km/h
Temperature: 15°C
Dew Point: 9°C
Humidity: 68%
Barometer: 1010 hPa
Clouds: Mostly Cloudy
Visibility: 6 miles , 10 km
Cloud details: Few Clouds 823 m
Mostly Cloudy 1036 m
2021/06/20 15:50 EGNX 201550Z 04008KT 9999 FEW027 BKN034 15/09 Q1010
 
EGNV - Tees-Side, United Kingdom
Distance from station: NNW 68mi, 109km
Updated: Sun, 20-Jun-2021 4:50pm BST
Clear
Clear
 Wind from NE
Wind: NE 8 mph , 13 km/h
Temperature: 16°C
Dew Point: 7°C
Humidity: 55%
Barometer: 1012 hPa
Summary: Clear
Visibility: greater than 7 miles , 10 km
2021/06/20 15:50 EGNV 201550Z 05007KT 020V110 CAVOK 16/07 Q1012
EGCC - Manchester Intl, United Kingdom
Distance from station: WSW 71mi, 114km
Updated: Sun, 20-Jun-2021 4:50pm BST
Mostly Cloudy
Mostly Cloudy
 Wind from ENE
Wind: ENE 7 mph , 11 km/h
Temperature: 17°C
Dew Point: 8°C
Humidity: 56%
Barometer: 1010 hPa
Clouds: Mostly Cloudy
Visibility: 6 miles , 10 km
Cloud details: Mostly Cloudy 1219 m
2021/06/20 15:50 EGCC 201550Z AUTO 07006KT 030V120 9999 BKN040 17/08 Q1010

Metar display script from Saratoga-Weather.org

Data updates at regular intervals.